Maersk Nimes — VRFO7 — position and weather

sailwx.info

Track history (hours):
 
Tides and Currents Weather Stations Pressure Air Temp Water Temp Dewpoint Dewpoint Depression Visibility Wind Speed Wind Dir Waves Ship Positions

Maersk Nimes

Last reported at 2017-May-26 07:07 UTC. Time now 2017-May-26 09:29 UTC.
Position N 55°23' E 011°02'.

Length 210 m; draft 11.4 m.

Type: Cargo ship. MMSI: 477559200.

Date/timePositionNaut miles runAvg speedWind from/ knotsBaromVisibWave heightAir tempDewpointWater temp
2017-May-26 07:07N 55°23' E 011°02'316.7
2017-May-26 06:55N 55°20' E 011°03'1915.9
2017-May-26 05:44N 55°01' E 010°59'416.3
2017-May-26 05:30N 54°58' E 010°56'816.7
2017-May-26 05:00N 54°50' E 010°50'816.5
2017-May-26 04:30N 54°42' E 010°47'815.9
2017-May-26 04:01N 54°37' E 010°57'816.6
2017-May-26 03:31N 54°36' E 011°11'917.1
2017-May-26 03:00N 54°32' E 011°25'917.2
2017-May-26 02:30N 54°28' E 011°38'816.6
2017-May-26 02:01N 54°26' E 011°52'917.2
2017-May-26 01:30N 54°26' E 012°07'3415.6
2017-May-25 23:18N 54°49' E 012°51'818.6
2017-May-25 22:51N 54°52' E 013°04'1018.9
2017-May-25 22:20N 54°56' E 013°20'918.7
2017-May-25 21:50N 54°60' E 013°35'918.5
2017-May-25 21:22N 55°02' E 013°50'718.6
2017-May-25 21:00N 55°04' E 014°01'918.9
2017-May-25 20:30N 55°11' E 014°12'1019.2
2017-May-25 20:00N 55°18' E 014°23'1019.2
2017-May-25 19:30N 55°25' E 014°35'1019.0
2017-May-25 19:00N 55°29' E 014°49'918.7
2017-May-25 18:30N 55°34' E 015°04'918.7
2017-May-25 18:00N 55°38' E 015°19'918.7
2017-May-25 17:30N 55°40' E 015°35'918.8
2017-May-25 17:00N 55°42' E 015°51'918.8
2017-May-25 16:30N 55°44' E 016°08'918.8
2017-May-25 16:00N 55°46' E 016°24'918.9
2017-May-25 15:30N 55°49' E 016°40'918.7
2017-May-25 15:00N 55°51' E 016°56'1918.6
2017-May-25 14:00N 55°56' E 017°28'918.6
2017-May-25 13:30N 55°59' E 017°44'918.8
2017-May-25 13:01N 56°04' E 017°59'918.8
2017-May-25 12:31N 56°08' E 018°13'918.8
2017-May-25 12:01N 56°14' E 018°27'918.9
2017-May-25 11:31N 56°19' E 018°40'23318.8
2017-May-24 23:07N 59°32' E 022°47'418.9
2017-May-24 22:55N 59°33' E 022°55'819.3
2017-May-24 22:30N 59°35' E 023°10'1019.2
2017-May-24 22:01N 59°38' E 023°28'1019.1
2017-May-24 21:31N 59°41' E 023°46'1019.1
2017-May-24 21:01N 59°44' E 024°04'1018.9
2017-May-24 20:30N 59°47' E 024°22'6819.0
2017-May-24 16:56N 60°01' E 026°34'818.6
2017-May-24 16:29N 60°00' E 026°50'917.9
2017-May-24 15:59N 60°01' E 027°08'919.1
2017-May-24 15:30N 60°05' E 027°23'918.9
2017-May-24 15:00N 60°10' E 027°40'917.1
2017-May-24 14:30N 60°10' E 027°57'1818.0
2017-May-24 13:30N 60°03' E 028°30'918.2
2017-May-24 13:00N 60°03' E 028°48'917.9
2017-May-24 12:30N 60°02' E 029°07'916.3
2017-May-24 11:57N 60°02' E 029°25'810.6
2017-May-24 11:14N 59°60' E 029°39'310.5
2017-May-24 10:59N 59°59' E 029°44'4 8.7
2017-May-24 10:30N 59°57' E 029°51'611.2
2017-May-24 10:00N 59°55' E 030°02'4 8.1
2017-May-24 09:30N 59°53' E 030°09'1 2.0
2017-May-24 08:55N 59°53' E 030°11'0 0.0
2017-May-24 08:28N 59°53' E 030°11'0 0.0
2017-May-24 07:58N 59°53' E 030°11'0 0.0
2017-May-24 07:28N 59°53' E 030°11'0 0.0
2017-May-24 06:58N 59°53' E 030°11'0 0.0
2017-May-24 06:28N 59°53' E 030°11'0 0.0
2017-May-24 05:58N 59°53' E 030°11'0 0.0
2017-May-24 05:28N 59°53' E 030°11'0 0.0
2017-May-24 04:58N 59°53' E 030°11'0 0.0
2017-May-24 04:28N 59°53' E 030°11'0 0.0
2017-May-24 03:58N 59°53' E 030°11'0 0.0
2017-May-24 03:28N 59°53' E 030°11'0 0.0
2017-May-24 02:58N 59°53' E 030°11'0 0.0
2017-May-24 02:28N 59°53' E 030°11'0 0.0
2017-May-24 01:58N 59°53' E 030°11'0 0.0
2017-May-24 01:28N 59°53' E 030°11'0 0.0
2017-May-24 00:58N 59°53' E 030°11'0 0.0
2017-May-24 00:28N 59°53' E 030°11'0 0.0
2017-May-23 23:58N 59°53' E 030°11'0 0.0
2017-May-23 23:28N 59°53' E 030°11'0 0.0
2017-May-23 22:58N 59°53' E 030°11'0 0.0
2017-May-23 22:30N 59°53' E 030°11'0 0.0
2017-May-23 22:00N 59°53' E 030°11'0 0.0
2017-May-23 21:30N 59°53' E 030°11'0 0.0
2017-May-23 21:00N 59°53' E 030°11'0 0.0
2017-May-23 20:30N 59°53' E 030°11'0 0.0
2017-May-23 20:00N 59°53' E 030°11'0 0.0
2017-May-23 19:30N 59°53' E 030°11'0 0.0
2017-May-23 18:57N 59°53' E 030°11'0 0.0
2017-May-23 18:30N 59°53' E 030°11'0 0.0
2017-May-23 18:00N 59°53' E 030°11'0 0.0
2017-May-23 17:30N 59°53' E 030°11'0 0.0
2017-May-23 17:00N 59°53' E 030°11'0 0.0
2017-May-23 16:30N 59°53' E 030°11'0 0.0
2017-May-23 16:00N 59°53' E 030°11'0 0.0
2017-May-23 15:30N 59°53' E 030°11'0 0.0
2017-May-23 15:00N 59°53' E 030°11'0 0.0
2017-May-23 14:30N 59°53' E 030°11'0 0.0
2017-May-23 13:30N 59°53' E 030°11'0 0.0
2017-May-23 13:00N 59°53' E 030°11'0 0.0
2017-May-23 12:30N 59°53' E 030°11'0 0.0
2017-May-23 12:00N 59°53' E 030°11'0 0.0
2017-May-23 11:30N 59°53' E 030°11'0 0.0
2017-May-23 11:00N 59°53' E 030°11'0 0.0
2017-May-23 10:30N 59°53' E 030°11'0 0.0
2017-May-23 10:00N 59°53' E 030°11'0 0.0
2017-May-23 09:30N 59°53' E 030°11'0 0.0
2017-May-23 09:00N 59°53' E 030°11'0 0.0
2017-May-23 08:30N 59°53' E 030°11'0 0.0
2017-May-23 08:00N 59°53' E 030°11'0 0.0
2017-May-23 07:30N 59°53' E 030°11'0 0.0
2017-May-23 07:00N 59°53' E 030°11'0 0.0
2017-May-23 06:30N 59°53' E 030°11'0 0.0
2017-May-23 06:00N 59°53' E 030°11'0 0.0
2017-May-23 05:30N 59°53' E 030°11'0 0.0
2017-May-23 05:00N 59°53' E 030°11'0 0.0
2017-May-23 04:30N 59°53' E 030°11'0 0.0
2017-May-23 04:00N 59°53' E 030°11'0 0.0
2017-May-23 03:30N 59°53' E 030°11'0 0.0
2017-May-23 03:00N 59°53' E 030°11'0 0.0
2017-May-23 02:30N 59°53' E 030°11'0 0.0
2017-May-23 02:00N 59°53' E 030°11'0 0.0
2017-May-23 01:30N 59°53' E 030°11'0 0.0
2017-May-23 01:00N 59°53' E 030°11'0 0.0
2017-May-23 00:30N 59°53' E 030°11'0 0.0
2017-May-22 23:57N 59°53' E 030°11'0 0.0
2017-May-22 23:30N 59°53' E 030°11'0 0.0
2017-May-22 23:00N 59°53' E 030°11'0 0.0
2017-May-22 22:30N 59°53' E 030°11'0 0.0
2017-May-22 22:00N 59°53' E 030°11'0 0.0
2017-May-22 21:30N 59°53' E 030°11'0 0.0
2017-May-22 21:00N 59°53' E 030°11'0 0.0
2017-May-22 20:30N 59°53' E 030°11'0 0.0
2017-May-22 20:00N 59°53' E 030°11'0 0.0
2017-May-22 19:30N 59°53' E 030°11'0 0.0
2017-May-22 19:00N 59°53' E 030°11'0 0.0
2017-May-22 18:30N 59°53' E 030°11'0 0.0
2017-May-22 18:00N 59°53' E 030°11'0 0.0
2017-May-22 17:30N 59°53' E 030°11'0 0.0
2017-May-22 17:00N 59°53' E 030°11'0 0.0
2017-May-22 16:30N 59°53' E 030°11'0 0.2
2017-May-22 16:00N 59°53' E 030°11'1 1.4
2017-May-22 15:30N 59°53' E 030°12'1 1.2
2017-May-22 15:00N 59°54' E 030°14'0 0.0
2017-May-22 14:00N 59°54' E 030°14'0 0.0
2017-May-22 13:30N 59°54' E 030°14'0 0.0
2017-May-22 13:00N 59°54' E 030°14'0 0.0
2017-May-22 12:30N 59°54' E 030°14'0 0.0
2017-May-22 11:54N 59°54' E 030°14'0 0.0
2017-May-22 11:30N 59°54' E 030°14'0 0.0
2017-May-22 11:00N 59°54' E 030°14'0 0.0
2017-May-22 10:30N 59°54' E 030°14'0 0.0
2017-May-22 10:00N 59°54' E 030°14'0 0.0
2017-May-22 09:30N 59°54' E 030°14'0 0.0
2017-May-22 08:57N 59°54' E 030°14'0 0.0
2017-May-22 08:24N 59°54' E 030°14'0 0.0
2017-May-22 07:57N 59°54' E 030°14'0 0.0
2017-May-22 07:30N 59°54' E 030°14'0 0.0
2017-May-22 07:00N 59°54' E 030°14'0 0.0
2017-May-22 06:30N 59°54' E 030°14'0 0.0
2017-May-22 06:00N 59°54' E 030°14'0 0.0
2017-May-22 05:30N 59°54' E 030°14'0 0.0
2017-May-22 05:00N 59°54' E 030°14'0 0.0
2017-May-22 04:30N 59°54' E 030°14'0 0.0
2017-May-22 03:57N 59°54' E 030°14'0 0.0
2017-May-22 03:30N 59°54' E 030°14'0 0.0
2017-May-22 03:00N 59°54' E 030°14'0 0.0
2017-May-22 02:30N 59°54' E 030°14'0 0.0
2017-May-22 02:00N 59°54' E 030°14'0 0.0
2017-May-22 01:27N 59°54' E 030°14'0 0.0
2017-May-22 01:00N 59°54' E 030°14'0 0.0
2017-May-22 00:30N 59°54' E 030°14'0 0.0
2017-May-22 00:00N 59°54' E 030°14'0 0.0
2017-May-21 23:30N 59°54' E 030°14'0 0.0
2017-May-21 23:00N 59°54' E 030°14'0 0.0
2017-May-21 22:27N 59°54' E 030°14'0 0.0
2017-May-21 22:00N 59°54' E 030°14'0 0.0
2017-May-21 21:30N 59°54' E 030°14'0 0.0
2017-May-21 21:00N 59°54' E 030°14'0 0.0
2017-May-21 20:30N 59°54' E 030°14'0 0.0
2017-May-21 20:00N 59°54' E 030°14'0 0.0
2017-May-21 19:30N 59°54' E 030°14'0 0.0
2017-May-21 19:00N 59°54' E 030°14'0 0.0
2017-May-21 18:30N 59°54' E 030°14'0 0.0
2017-May-21 18:00N 59°54' E 030°14'0 0.0
2017-May-21 17:27N 59°54' E 030°14'0 0.0
2017-May-21 17:00N 59°54' E 030°14'0 0.0
2017-May-21 16:30N 59°54' E 030°14'0 0.0
2017-May-21 16:00N 59°54' E 030°14'0 0.0
2017-May-21 15:30N 59°54' E 030°14'0 0.0
2017-May-21 15:00N 59°54' E 030°14'0 0.0
2017-May-21 14:00N 59°54' E 030°14'0 0.0
2017-May-21 13:27N 59°54' E 030°14'0 0.0
2017-May-21 13:00N 59°54' E 030°14'0 0.0
2017-May-21 12:30N 59°54' E 030°14'0 0.0
2017-May-21 12:00N 59°54' E 030°14'0 0.0
2017-May-21 11:27N 59°54' E 030°14'0 0.0
2017-May-21 11:00N 59°54' E 030°14'0 0.0
2017-May-21 10:30N 59°54' E 030°14'0 0.0
2017-May-21 10:00N 59°54' E 030°14'0 0.0
2017-May-21 09:30N 59°54' E 030°14'0 0.0
2017-May-21 09:00N 59°54' E 030°14'0 0.0
2017-May-21 08:30N 59°54' E 030°14'0 0.0
2017-May-21 08:00N 59°54' E 030°14'0 0.0
2017-May-21 07:30N 59°54' E 030°14'0 0.2
2017-May-21 06:54N 59°53' E 030°13'0 0.0
2017-May-21 06:30N 59°53' E 030°13'0 0.0
2017-May-21 06:00N 59°53' E 030°13'0 0.0
2017-May-21 05:30N 59°53' E 030°13'0 0.0
2017-May-21 04:57N 59°53' E 030°13'0 0.0
2017-May-21 04:30N 59°53' E 030°13'0 0.0
2017-May-21 03:57N 59°53' E 030°13'0 0.1
2017-May-21 03:30N 59°53' E 030°13'2 3.5
2017-May-21 03:00N 59°53' E 030°10'4 7.7
2017-May-21 02:30N 59°55' E 030°03'4 7.4
2017-May-21 02:01N 59°56' E 029°56'510.6
2017-May-21 01:30N 59°58' E 029°46'611.3
2017-May-21 01:00N 60°00' E 029°36'5 9.3
2017-May-21 00:31N 60°01' E 029°27'7 9.7
2017-May-20 23:46N 60°02' E 029°12'711.2
2017-May-20 23:07N 60°02' E 028°58'314.2
2017-May-20 22:56N 60°02' E 028°52'614.6
2017-May-20 22:30N 60°02' E 028°40'714.4
2017-May-20 22:00N 60°03' E 028°26'815.3
2017-May-20 21:30N 60°07' E 028°13'917.5
2017-May-20 21:00N 60°10' E 027°56'816.5
2017-May-20 20:30N 60°08' E 027°40'917.5
2017-May-20 20:00N 60°04' E 027°25'917.6
2017-May-20 19:31N 59°59' E 027°10'816.4
2017-May-20 19:00N 59°59' E 026°53'1017.6
2017-May-20 18:27N 59°59' E 026°34'818.3
2017-May-20 18:00N 59°57' E 026°18'7217.9
2017-May-20 14:00N 59°39' E 023°60'918.2
2017-May-20 13:30N 59°36' E 023°43'918.3
2017-May-20 13:00N 59°33' E 023°26'918.2
2017-May-20 12:30N 59°30' E 023°09'28518.5
2017-May-19 21:08N 55°53' E 017°25'319.0
2017-May-19 21:00N 55°52' E 017°21'1019.1
2017-May-19 20:30N 55°50' E 017°04'1019.0
2017-May-19 20:00N 55°47' E 016°48'1019.0
2017-May-19 19:30N 55°45' E 016°31'1019.3
2017-May-19 19:00N 55°43' E 016°15'1019.3
2017-May-19 18:30N 55°40' E 015°58'1019.3
2017-May-19 18:00N 55°38' E 015°42'1019.2
2017-May-19 17:30N 55°34' E 015°26'1019.2
2017-May-19 17:00N 55°31' E 015°10'1019.3
2017-May-19 16:31N 55°27' E 014°54'1019.1
2017-May-19 16:00N 55°23' E 014°39'1019.3
2017-May-19 15:30N 55°16' E 014°29'1019.3
2017-May-19 15:00N 55°08' E 014°18'1918.4
2017-May-19 14:00N 54°58' E 013°51'918.8
2017-May-19 13:30N 54°55' E 013°35'919.1
2017-May-19 13:00N 54°52' E 013°20'918.5
2017-May-19 12:30N 54°49' E 013°05'918.9
2017-May-19 12:00N 54°46' E 012°49'918.7
2017-May-19 11:30N 54°42' E 012°35'1018.7
2017-May-19 10:59N 54°36' E 012°21'714.1
2017-May-19 10:30N 54°30' E 012°15'613.0
2017-May-19 10:00N 54°25' E 012°09'918.0
2017-May-19 09:29N 54°25' E 011°53'1019.1
2017-May-19 08:57N 54°28' E 011°36'919.4
2017-May-19 08:30N 54°32' E 011°23'1019.1
2017-May-19 08:01N 54°35' E 011°08'1019.0
2017-May-19 07:31N 54°38' E 010°52'816.2
2017-May-19 07:01N 54°46' E 010°48'1019.8
2017-May-19 06:30N 54°56' E 010°52'918.5
2017-May-19 06:00N 55°04' E 010°60'917.6
2017-May-19 05:30N 55°12' E 011°05'1019.1
2017-May-19 04:59N 55°22' E 011°02'7417.8
2017-May-19 00:48N 56°33' E 011°37'619.1
2017-May-19 00:30N 56°38' E 011°43'918.8
2017-May-19 00:00N 56°47' E 011°50'1119.7
2017-May-18 23:25N 56°58' E 011°43'820.0
2017-May-18 23:00N 57°06' E 011°39'1019.5
2017-May-18 22:30N 57°15' E 011°33'1019.2
2017-May-18 22:00N 57°24' E 011°26'918.8
2017-May-18 21:30N 57°31' E 011°16'1019.3
2017-May-18 21:00N 57°38' E 011°03'919.0
2017-May-18 20:30N 57°44' E 010°50'814.9
2017-May-18 19:59N 57°49' E 010°38'814.6
2017-May-18 19:27N 57°48' E 010°23'919.4
2017-May-18 18:59N 57°48' E 010°06'1019.4
2017-May-18 18:28N 57°47' E 009°47'7919.4
2017-May-18 14:25N 56°56' E 007°56'1819.6
2017-May-18 13:29N 56°40' E 007°40'1019.2
2017-May-18 12:59N 56°30' E 007°37'918.9
2017-May-18 12:29N 56°21' E 007°32'3619.0
2017-May-18 10:36N 55°52' E 006°55'219.3
2017-May-18 10:31N 55°51' E 006°54'3018.6
2017-May-18 08:52N 55°21' E 006°39'719.3
2017-May-18 08:30N 55°14' E 006°39'1019.1
2017-May-18 08:00N 55°05' E 006°45'919.1
2017-May-18 07:31N 54°57' E 006°52'918.9
2017-May-18 07:00N 54°48' E 006°59'919.0
2017-May-18 06:31N 54°39' E 007°05'1019.0
2017-May-18 06:00N 54°31' E 007°13'4316.9
2017-May-18 03:27N 53°53' E 007°48'510.6
2017-May-18 03:00N 53°52' E 007°56'713.7
2017-May-18 02:30N 53°49' E 008°07'713.3
2017-May-18 01:59N 53°44' E 008°15'612.6
2017-May-18 01:29N 53°40' E 008°23'611.5
2017-May-18 00:59N 53°36' E 008°30'1 0.1
2017-May-17 10:19N 53°35' E 008°31'0 0.0
2017-May-17 08:19N 53°35' E 008°31'0 0.0
2017-May-17 07:52N 53°35' E 008°31'0 0.0
2017-May-17 07:22N 53°35' E 008°31'0 0.0
2017-May-17 06:58N 53°35' E 008°31'0 0.0
2017-May-17 06:28N 53°35' E 008°31'0 0.0
2017-May-17 05:58N 53°35' E 008°31'0 0.0
2017-May-17 05:28N 53°35' E 008°31'0 0.2
2017-May-17 05:01N 53°35' E 008°31'4 7.0
2017-May-17 04:31N 53°38' E 008°27'713.7
2017-May-17 04:00N 53°42' E 008°19'816.3
2017-May-17 03:29N 53°48' E 008°08'816.5
2017-May-17 03:00N 53°52' E 007°56'4 7.4
2017-May-17 02:29N 53°55' E 007°53'1 0.0
2017-May-16 09:15N 53°56' E 007°52'0 0.2
2017-May-16 08:57N 53°56' E 007°52'0 0.1
2017-May-16 08:21N 53°56' E 007°52'0 0.1
2017-May-16 07:57N 53°56' E 007°52'  
Track history (hours):
 
Tides and Currents Weather Stations Pressure Air Temp Water Temp Dewpoint Dewpoint Depression Visibility Wind Speed Wind Dir Waves Ship Positions

Maersk Nimes

Last reported at 2017-May-26 07:07 UTC. Time now 2017-May-26 09:29 UTC.
Position N 55°23' E 011°02'.

Length 210 m; draft 11.4 m.

Type: Cargo ship. MMSI: 477559200.

Date/timePositionNaut miles runAvg speedWind from/ knotsBaromVisibWave heightAir tempDewpointWater temp
2017-May-26 07:07N 55°23' E 011°02'316.7
2017-May-26 06:55N 55°20' E 011°03'1915.9
2017-May-26 05:44N 55°01' E 010°59'416.3
2017-May-26 05:30N 54°58' E 010°56'816.7
2017-May-26 05:00N 54°50' E 010°50'816.5
2017-May-26 04:30N 54°42' E 010°47'815.9
2017-May-26 04:01N 54°37' E 010°57'816.6
2017-May-26 03:31N 54°36' E 011°11'917.1
2017-May-26 03:00N 54°32' E 011°25'917.2
2017-May-26 02:30N 54°28' E 011°38'816.6
2017-May-26 02:01N 54°26' E 011°52'917.2
2017-May-26 01:30N 54°26' E 012°07'3415.6
2017-May-25 23:18N 54°49' E 012°51'818.6
2017-May-25 22:51N 54°52' E 013°04'1018.9
2017-May-25 22:20N 54°56' E 013°20'918.7
2017-May-25 21:50N 54°60' E 013°35'918.5
2017-May-25 21:22N 55°02' E 013°50'718.6
2017-May-25 21:00N 55°04' E 014°01'918.9
2017-May-25 20:30N 55°11' E 014°12'1019.2
2017-May-25 20:00N 55°18' E 014°23'1019.2
2017-May-25 19:30N 55°25' E 014°35'1019.0
2017-May-25 19:00N 55°29' E 014°49'918.7
2017-May-25 18:30N 55°34' E 015°04'918.7
2017-May-25 18:00N 55°38' E 015°19'918.7
2017-May-25 17:30N 55°40' E 015°35'918.8
2017-May-25 17:00N 55°42' E 015°51'918.8
2017-May-25 16:30N 55°44' E 016°08'918.8
2017-May-25 16:00N 55°46' E 016°24'918.9
2017-May-25 15:30N 55°49' E 016°40'918.7
2017-May-25 15:00N 55°51' E 016°56'1918.6
2017-May-25 14:00N 55°56' E 017°28'918.6
2017-May-25 13:30N 55°59' E 017°44'918.8
2017-May-25 13:01N 56°04' E 017°59'918.8
2017-May-25 12:31N 56°08' E 018°13'918.8
2017-May-25 12:01N 56°14' E 018°27'918.9
2017-May-25 11:31N 56°19' E 018°40'23318.8
2017-May-24 23:07N 59°32' E 022°47'418.9
2017-May-24 22:55N 59°33' E 022°55'819.3
2017-May-24 22:30N 59°35' E 023°10'1019.2
2017-May-24 22:01N 59°38' E 023°28'1019.1
2017-May-24 21:31N 59°41' E 023°46'1019.1
2017-May-24 21:01N 59°44' E 024°04'1018.9
2017-May-24 20:30N 59°47' E 024°22'6819.0
2017-May-24 16:56N 60°01' E 026°34'818.6
2017-May-24 16:29N 60°00' E 026°50'917.9
2017-May-24 15:59N 60°01' E 027°08'919.1
2017-May-24 15:30N 60°05' E 027°23'918.9
2017-May-24 15:00N 60°10' E 027°40'917.1
2017-May-24 14:30N 60°10' E 027°57'1818.0
2017-May-24 13:30N 60°03' E 028°30'918.2
2017-May-24 13:00N 60°03' E 028°48'917.9
2017-May-24 12:30N 60°02' E 029°07'916.3
2017-May-24 11:57N 60°02' E 029°25'810.6
2017-May-24 11:14N 59°60' E 029°39'310.5
2017-May-24 10:59N 59°59' E 029°44'4 8.7
2017-May-24 10:30N 59°57' E 029°51'611.2
2017-May-24 10:00N 59°55' E 030°02'4 8.1
2017-May-24 09:30N 59°53' E 030°09'1 2.0
2017-May-24 08:55N 59°53' E 030°11'0 0.0
2017-May-24 08:28N 59°53' E 030°11'0 0.0
2017-May-24 07:58N 59°53' E 030°11'0 0.0
2017-May-24 07:28N 59°53' E 030°11'0 0.0
2017-May-24 06:58N 59°53' E 030°11'0 0.0
2017-May-24 06:28N 59°53' E 030°11'0 0.0
2017-May-24 05:58N 59°53' E 030°11'0 0.0
2017-May-24 05:28N 59°53' E 030°11'0 0.0
2017-May-24 04:58N 59°53' E 030°11'0 0.0
2017-May-24 04:28N 59°53' E 030°11'0 0.0
2017-May-24 03:58N 59°53' E 030°11'0 0.0
2017-May-24 03:28N 59°53' E 030°11'0 0.0
2017-May-24 02:58N 59°53' E 030°11'0 0.0
2017-May-24 02:28N 59°53' E 030°11'0 0.0
2017-May-24 01:58N 59°53' E 030°11'0 0.0
2017-May-24 01:28N 59°53' E 030°11'0 0.0
2017-May-24 00:58N 59°53' E 030°11'0 0.0
2017-May-24 00:28N 59°53' E 030°11'0 0.0
2017-May-23 23:58N 59°53' E 030°11'0 0.0
2017-May-23 23:28N 59°53' E 030°11'0 0.0
2017-May-23 22:58N 59°53' E 030°11'0 0.0
2017-May-23 22:30N 59°53' E 030°11'0 0.0
2017-May-23 22:00N 59°53' E 030°11'0 0.0
2017-May-23 21:30N 59°53' E 030°11'0 0.0
2017-May-23 21:00N 59°53' E 030°11'0 0.0
2017-May-23 20:30N 59°53' E 030°11'0 0.0
2017-May-23 20:00N 59°53' E 030°11'0 0.0
2017-May-23 19:30N 59°53' E 030°11'0 0.0
2017-May-23 18:57N 59°53' E 030°11'0 0.0
2017-May-23 18:30N 59°53' E 030°11'0 0.0
2017-May-23 18:00N 59°53' E 030°11'0 0.0
2017-May-23 17:30N 59°53' E 030°11'0 0.0
2017-May-23 17:00N 59°53' E 030°11'0 0.0
2017-May-23 16:30N 59°53' E 030°11'0 0.0
2017-May-23 16:00N 59°53' E 030°11'0 0.0
2017-May-23 15:30N 59°53' E 030°11'0 0.0
2017-May-23 15:00N 59°53' E 030°11'0 0.0
2017-May-23 14:30N 59°53' E 030°11'0 0.0
2017-May-23 13:30N 59°53' E 030°11'0 0.0
2017-May-23 13:00N 59°53' E 030°11'0 0.0
2017-May-23 12:30N 59°53' E 030°11'0 0.0
2017-May-23 12:00N 59°53' E 030°11'0 0.0
2017-May-23 11:30N 59°53' E 030°11'0 0.0
2017-May-23 11:00N 59°53' E 030°11'0 0.0
2017-May-23 10:30N 59°53' E 030°11'0 0.0
2017-May-23 10:00N 59°53' E 030°11'0 0.0
2017-May-23 09:30N 59°53' E 030°11'0 0.0
2017-May-23 09:00N 59°53' E 030°11'0 0.0
2017-May-23 08:30N 59°53' E 030°11'0 0.0
2017-May-23 08:00N 59°53' E 030°11'0 0.0
2017-May-23 07:30N 59°53' E 030°11'0 0.0
2017-May-23 07:00N 59°53' E 030°11'0 0.0
2017-May-23 06:30N 59°53' E 030°11'0 0.0
2017-May-23 06:00N 59°53' E 030°11'0 0.0
2017-May-23 05:30N 59°53' E 030°11'0 0.0
2017-May-23 05:00N 59°53' E 030°11'0 0.0
2017-May-23 04:30N 59°53' E 030°11'0 0.0
2017-May-23 04:00N 59°53' E 030°11'0 0.0
2017-May-23 03:30N 59°53' E 030°11'0 0.0
2017-May-23 03:00N 59°53' E 030°11'0 0.0
2017-May-23 02:30N 59°53' E 030°11'0 0.0
2017-May-23 02:00N 59°53' E 030°11'0 0.0
2017-May-23 01:30N 59°53' E 030°11'0 0.0
2017-May-23 01:00N 59°53' E 030°11'0 0.0
2017-May-23 00:30N 59°53' E 030°11'0 0.0
2017-May-22 23:57N 59°53' E 030°11'0 0.0
2017-May-22 23:30N 59°53' E 030°11'0 0.0
2017-May-22 23:00N 59°53' E 030°11'0 0.0
2017-May-22 22:30N 59°53' E 030°11'0 0.0
2017-May-22 22:00N 59°53' E 030°11'0 0.0
2017-May-22 21:30N 59°53' E 030°11'0 0.0
2017-May-22 21:00N 59°53' E 030°11'0 0.0
2017-May-22 20:30N 59°53' E 030°11'0 0.0
2017-May-22 20:00N 59°53' E 030°11'0 0.0
2017-May-22 19:30N 59°53' E 030°11'0 0.0
2017-May-22 19:00N 59°53' E 030°11'0 0.0
2017-May-22 18:30N 59°53' E 030°11'0 0.0
2017-May-22 18:00N 59°53' E 030°11'0 0.0
2017-May-22 17:30N 59°53' E 030°11'0 0.0
2017-May-22 17:00N 59°53' E 030°11'0 0.0
2017-May-22 16:30N 59°53' E 030°11'0 0.2
2017-May-22 16:00N 59°53' E 030°11'1 1.4
2017-May-22 15:30N 59°53' E 030°12'1 1.2
2017-May-22 15:00N 59°54' E 030°14'0 0.0
2017-May-22 14:00N 59°54' E 030°14'0 0.0
2017-May-22 13:30N 59°54' E 030°14'0 0.0
2017-May-22 13:00N 59°54' E 030°14'0 0.0
2017-May-22 12:30N 59°54' E 030°14'0 0.0
2017-May-22 11:54N 59°54' E 030°14'0 0.0
2017-May-22 11:30N 59°54' E 030°14'0 0.0
2017-May-22 11:00N 59°54' E 030°14'0 0.0
2017-May-22 10:30N 59°54' E 030°14'0 0.0
2017-May-22 10:00N 59°54' E 030°14'0 0.0
2017-May-22 09:30N 59°54' E 030°14'0 0.0
2017-May-22 08:57N 59°54' E 030°14'0 0.0
2017-May-22 08:24N 59°54' E 030°14'0 0.0
2017-May-22 07:57N 59°54' E 030°14'0 0.0
2017-May-22 07:30N 59°54' E 030°14'0 0.0
2017-May-22 07:00N 59°54' E 030°14'0 0.0
2017-May-22 06:30N 59°54' E 030°14'0 0.0
2017-May-22 06:00N 59°54' E 030°14'0 0.0
2017-May-22 05:30N 59°54' E 030°14'0 0.0
2017-May-22 05:00N 59°54' E 030°14'0 0.0
2017-May-22 04:30N 59°54' E 030°14'0 0.0
2017-May-22 03:57N 59°54' E 030°14'0 0.0
2017-May-22 03:30N 59°54' E 030°14'0 0.0
2017-May-22 03:00N 59°54' E 030°14'0 0.0
2017-May-22 02:30N 59°54' E 030°14'0 0.0
2017-May-22 02:00N 59°54' E 030°14'0 0.0
2017-May-22 01:27N 59°54' E 030°14'0 0.0
2017-May-22 01:00N 59°54' E 030°14'0 0.0
2017-May-22 00:30N 59°54' E 030°14'0 0.0
2017-May-22 00:00N 59°54' E 030°14'0 0.0
2017-May-21 23:30N 59°54' E 030°14'0 0.0
2017-May-21 23:00N 59°54' E 030°14'0 0.0
2017-May-21 22:27N 59°54' E 030°14'0 0.0
2017-May-21 22:00N 59°54' E 030°14'0 0.0
2017-May-21 21:30N 59°54' E 030°14'0 0.0
2017-May-21 21:00N 59°54' E 030°14'0 0.0
2017-May-21 20:30N 59°54' E 030°14'0 0.0
2017-May-21 20:00N 59°54' E 030°14'0 0.0
2017-May-21 19:30N 59°54' E 030°14'0 0.0
2017-May-21 19:00N 59°54' E 030°14'0 0.0
2017-May-21 18:30N 59°54' E 030°14'0 0.0
2017-May-21 18:00N 59°54' E 030°14'0 0.0
2017-May-21 17:27N 59°54' E 030°14'0 0.0
2017-May-21 17:00N 59°54' E 030°14'0 0.0
2017-May-21 16:30N 59°54' E 030°14'0 0.0
2017-May-21 16:00N 59°54' E 030°14'0 0.0
2017-May-21 15:30N 59°54' E 030°14'0 0.0
2017-May-21 15:00N 59°54' E 030°14'0 0.0
2017-May-21 14:00N 59°54' E 030°14'0 0.0
2017-May-21 13:27N 59°54' E 030°14'0 0.0
2017-May-21 13:00N 59°54' E 030°14'0 0.0
2017-May-21 12:30N 59°54' E 030°14'0 0.0
2017-May-21 12:00N 59°54' E 030°14'0 0.0
2017-May-21 11:27N 59°54' E 030°14'0 0.0
2017-May-21 11:00N 59°54' E 030°14'0 0.0
2017-May-21 10:30N 59°54' E 030°14'0 0.0
2017-May-21 10:00N 59°54' E 030°14'0 0.0
2017-May-21 09:30N 59°54' E 030°14'0 0.0
2017-May-21 09:00N 59°54' E 030°14'0 0.0
2017-May-21 08:30N 59°54' E 030°14'0 0.0
2017-May-21 08:00N 59°54' E 030°14'0 0.0
2017-May-21 07:30N 59°54' E 030°14'0 0.2
2017-May-21 06:54N 59°53' E 030°13'0 0.0
2017-May-21 06:30N 59°53' E 030°13'0 0.0
2017-May-21 06:00N 59°53' E 030°13'0 0.0
2017-May-21 05:30N 59°53' E 030°13'0 0.0
2017-May-21 04:57N 59°53' E 030°13'0 0.0
2017-May-21 04:30N 59°53' E 030°13'0 0.0
2017-May-21 03:57N 59°53' E 030°13'0 0.1
2017-May-21 03:30N 59°53' E 030°13'2 3.5
2017-May-21 03:00N 59°53' E 030°10'4 7.7
2017-May-21 02:30N 59°55' E 030°03'4 7.4
2017-May-21 02:01N 59°56' E 029°56'510.6
2017-May-21 01:30N 59°58' E 029°46'611.3
2017-May-21 01:00N 60°00' E 029°36'5 9.3
2017-May-21 00:31N 60°01' E 029°27'7 9.7
2017-May-20 23:46N 60°02' E 029°12'711.2
2017-May-20 23:07N 60°02' E 028°58'314.2
2017-May-20 22:56N 60°02' E 028°52'614.6
2017-May-20 22:30N 60°02' E 028°40'714.4
2017-May-20 22:00N 60°03' E 028°26'815.3
2017-May-20 21:30N 60°07' E 028°13'917.5
2017-May-20 21:00N 60°10' E 027°56'816.5
2017-May-20 20:30N 60°08' E 027°40'917.5
2017-May-20 20:00N 60°04' E 027°25'917.6
2017-May-20 19:31N 59°59' E 027°10'816.4
2017-May-20 19:00N 59°59' E 026°53'1017.6
2017-May-20 18:27N 59°59' E 026°34'818.3
2017-May-20 18:00N 59°57' E 026°18'7217.9
2017-May-20 14:00N 59°39' E 023°60'918.2
2017-May-20 13:30N 59°36' E 023°43'918.3
2017-May-20 13:00N 59°33' E 023°26'918.2
2017-May-20 12:30N 59°30' E 023°09'28518.5
2017-May-19 21:08N 55°53' E 017°25'319.0
2017-May-19 21:00N 55°52' E 017°21'1019.1
2017-May-19 20:30N 55°50' E 017°04'1019.0
2017-May-19 20:00N 55°47' E 016°48'1019.0
2017-May-19 19:30N 55°45' E 016°31'1019.3
2017-May-19 19:00N 55°43' E 016°15'1019.3
2017-May-19 18:30N 55°40' E 015°58'1019.3
2017-May-19 18:00N 55°38' E 015°42'1019.2
2017-May-19 17:30N 55°34' E 015°26'1019.2
2017-May-19 17:00N 55°31' E 015°10'1019.3
2017-May-19 16:31N 55°27' E 014°54'1019.1
2017-May-19 16:00N 55°23' E 014°39'1019.3
2017-May-19 15:30N 55°16' E 014°29'1019.3
2017-May-19 15:00N 55°08' E 014°18'1918.4
2017-May-19 14:00N 54°58' E 013°51'918.8
2017-May-19 13:30N 54°55' E 013°35'919.1
2017-May-19 13:00N 54°52' E 013°20'918.5
2017-May-19 12:30N 54°49' E 013°05'918.9
2017-May-19 12:00N 54°46' E 012°49'918.7
2017-May-19 11:30N 54°42' E 012°35'1018.7
2017-May-19 10:59N 54°36' E 012°21'714.1
2017-May-19 10:30N 54°30' E 012°15'613.0
2017-May-19 10:00N 54°25' E 012°09'918.0
2017-May-19 09:29N 54°25' E 011°53'1019.1
2017-May-19 08:57N 54°28' E 011°36'919.4
2017-May-19 08:30N 54°32' E 011°23'1019.1
2017-May-19 08:01N 54°35' E 011°08'1019.0
2017-May-19 07:31N 54°38' E 010°52'816.2
2017-May-19 07:01N 54°46' E 010°48'1019.8
2017-May-19 06:30N 54°56' E 010°52'918.5
2017-May-19 06:00N 55°04' E 010°60'917.6
2017-May-19 05:30N 55°12' E 011°05'1019.1
2017-May-19 04:59N 55°22' E 011°02'7417.8
2017-May-19 00:48N 56°33' E 011°37'619.1
2017-May-19 00:30N 56°38' E 011°43'918.8
2017-May-19 00:00N 56°47' E 011°50'1119.7
2017-May-18 23:25N 56°58' E 011°43'820.0
2017-May-18 23:00N 57°06' E 011°39'1019.5
2017-May-18 22:30N 57°15' E 011°33'1019.2
2017-May-18 22:00N 57°24' E 011°26'918.8
2017-May-18 21:30N 57°31' E 011°16'1019.3
2017-May-18 21:00N 57°38' E 011°03'919.0
2017-May-18 20:30N 57°44' E 010°50'814.9
2017-May-18 19:59N 57°49' E 010°38'814.6
2017-May-18 19:27N 57°48' E 010°23'919.4
2017-May-18 18:59N 57°48' E 010°06'1019.4
2017-May-18 18:28N 57°47' E 009°47'7919.4
2017-May-18 14:25N 56°56' E 007°56'1819.6
2017-May-18 13:29N 56°40' E 007°40'1019.2
2017-May-18 12:59N 56°30' E 007°37'918.9
2017-May-18 12:29N 56°21' E 007°32'3619.0
2017-May-18 10:36N 55°52' E 006°55'219.3
2017-May-18 10:31N 55°51' E 006°54'3018.6
2017-May-18 08:52N 55°21' E 006°39'719.3
2017-May-18 08:30N 55°14' E 006°39'1019.1
2017-May-18 08:00N 55°05' E 006°45'919.1
2017-May-18 07:31N 54°57' E 006°52'918.9
2017-May-18 07:00N 54°48' E 006°59'919.0
2017-May-18 06:31N 54°39' E 007°05'1019.0
2017-May-18 06:00N 54°31' E 007°13'4316.9
2017-May-18 03:27N 53°53' E 007°48'510.6
2017-May-18 03:00N 53°52' E 007°56'713.7
2017-May-18 02:30N 53°49' E 008°07'713.3
2017-May-18 01:59N 53°44' E 008°15'612.6
2017-May-18 01:29N 53°40' E 008°23'611.5
2017-May-18 00:59N 53°36' E 008°30'1 0.1
2017-May-17 10:19N 53°35' E 008°31'0 0.0
2017-May-17 08:19N 53°35' E 008°31'0 0.0
2017-May-17 07:52N 53°35' E 008°31'0 0.0
2017-May-17 07:22N 53°35' E 008°31'0 0.0
2017-May-17 06:58N 53°35' E 008°31'0 0.0
2017-May-17 06:28N 53°35' E 008°31'0 0.0
2017-May-17 05:58N 53°35' E 008°31'0 0.0
2017-May-17 05:28N 53°35' E 008°31'0 0.2
2017-May-17 05:01N 53°35' E 008°31'4 7.0
2017-May-17 04:31N 53°38' E 008°27'713.7
2017-May-17 04:00N 53°42' E 008°19'816.3
2017-May-17 03:29N 53°48' E 008°08'816.5
2017-May-17 03:00N 53°52' E 007°56'4 7.4
2017-May-17 02:29N 53°55' E 007°53'1 0.0
2017-May-16 09:15N 53°56' E 007°52'0 0.2
2017-May-16 08:57N 53°56' E 007°52'0 0.1
2017-May-16 08:21N 53°56' E 007°52'0 0.1
2017-May-16 07:57N 53°56' E 007°52'  

Dump ship's entire track history